Terminal Aerodrome Forecast
Issued by NWS

Home | Current Version | Previous Version | Text Only | Print | Product List | Glossary On
Versions: 1 2 3 4 5 6 7 8 9 10 11 12 13 14 15 16 17
000
FTAK31 PANC 061735
TAFADU
TAF
PADU 061735Z 0618/0718 32010KT P6SM VCSH SCT025 BKN035
     FM070600 32012G20KT P6SM -SHSN SCT025 OVC035
      AMD LTD TO CLD VIS AND WX 0704/0716=

USA.gov is the U.S. government's official web portal to all federal, state and local government web resources and services.